This is the latest recevied weather packets stored in our database for station/object IN3BXS. If no packets are shown the sender has not sent any weather packets the latest 10 day(s).
| Time | Temp. | Humidity | Pressure | Rain* | Wind** | Luminosity | Snow |
|---|---|---|---|---|---|---|---|
| 1777543226 | 13.33° C | 27% | 1018.7 hPa | 0 mm | - | - | - |
| 1777541427 | 11.67° C | 31% | 1019.4 hPa | 0 mm | - | - | - |
| 1777539626 | 11.11° C | 31% | 1019.5 hPa | 0 mm | - | - | - |
| 1777537826 | 10° C | 37% | 1019 hPa | 0 mm | - | - | - |
| 1777534226 | 7.78° C | 39% | 1020 hPa | 0 mm | - | - | - |
| 1777532426 | 7.22° C | 40% | 1020.2 hPa | 0 mm | - | - | - |
| 1777530626 | 7.78° C | 46% | 1020.1 hPa | 0 mm | - | - | - |
| 1777528826 | 6.67° C | 51% | 1020.5 hPa | 0 mm | - | - | - |
| 1777527026 | 6.67° C | 51% | 1019.3 hPa | 0 mm | - | - | - |
| 1777525226 | 6.11° C | 49% | 1019.7 hPa | 0 mm | - | - | - |
| 1777523427 | 6.11° C | 49% | 1019.5 hPa | 0 mm | - | - | - |
| 1777521626 | 6.67° C | 50% | 1019.4 hPa | 0 mm | - | - | - |
| 1777519826 | 6.67° C | 50% | 1019.3 hPa | 0 mm | - | - | - |
| 1777518026 | 7.22° C | 51% | 1019.1 hPa | 0 mm | - | - | - |
| 1777516226 | 7.22° C | 51% | 1019.2 hPa | 0 mm | - | - | - |
| 1777514426 | 7.22° C | 54% | 1019.1 hPa | 0 mm | - | - | - |
| 1777512626 | 7.22° C | 56% | 1019.1 hPa | 0 mm | - | - | - |
| 1777510826 | 6.67° C | 58% | 1019.2 hPa | 0 mm | - | - | - |
| 1777509026 | 6.67° C | 56% | 1019.3 hPa | 0 mm | - | - | - |
| 1777507226 | 6.67° C | 55% | 1019.4 hPa | 0 mm | - | - | - |
| 1777505426 | 6.67° C | 58% | 1019.4 hPa | 0 mm | - | - | - |
| 1777503627 | 5.56° C | 52% | 1018.8 hPa | 0 mm | - | - | - |
| 1777501826 | 5.56° C | 50% | 1018.7 hPa | 0 mm | - | - | - |
| 1777500026 | 6.67° C | 50% | 1018.3 hPa | 0 mm | - | - | - |
| 1777498226 | 6.67° C | 50% | 1018.1 hPa | 0 mm | - | - | - |
* Rain latest hour (hover to see other rain measurements)
** Current wind speed in m/s (hover to see current wind gust speed)